sensor_id;sensor_type;location;lat;lon;timestamp;P1;durP1;ratioP1;P2;durP2;ratioP2
18048;SDS011;9149;47.002;8.604;2023-06-10T00:01:46;5.70;;;3.33;;
18048;SDS011;9149;47.002;8.604;2023-06-10T00:04:15;8.00;;;3.90;;
18048;SDS011;9149;47.002;8.604;2023-06-10T00:06:43;8.38;;;3.58;;
18048;SDS011;9149;47.002;8.604;2023-06-10T00:09:11;7.35;;;3.33;;
18048;SDS011;9149;47.002;8.604;2023-06-10T00:11:41;4.93;;;2.90;;
18048;SDS011;9149;47.002;8.604;2023-06-10T00:14:08;5.85;;;3.45;;
18048;SDS011;9149;47.002;8.604;2023-06-10T00:16:36;5.30;;;3.47;;
18048;SDS011;9149;47.002;8.604;2023-06-10T00:19:05;5.75;;;3.63;;
18048;SDS011;9149;47.002;8.604;2023-06-10T00:21:35;4.63;;;3.00;;
18048;SDS011;9149;47.002;8.604;2023-06-10T00:24:06;7.75;;;3.88;;
18048;SDS011;9149;47.002;8.604;2023-06-10T00:26:36;5.55;;;3.53;;
18048;SDS011;9149;47.002;8.604;2023-06-10T00:29:04;5.90;;;3.70;;
18048;SDS011;9149;47.002;8.604;2023-06-10T00:31:31;6.97;;;3.45;;
18048;SDS011;9149;47.002;8.604;2023-06-10T00:33:59;5.75;;;3.58;;
18048;SDS011;9149;47.002;8.604;2023-06-10T00:36:27;9.07;;;3.50;;
18048;SDS011;9149;47.002;8.604;2023-06-10T00:38:56;15.35;;;4.30;;
18048;SDS011;9149;47.002;8.604;2023-06-10T00:41:24;7.72;;;3.60;;
18048;SDS011;9149;47.002;8.604;2023-06-10T00:43:53;6.22;;;3.58;;
18048;SDS011;9149;47.002;8.604;2023-06-10T00:46:21;5.90;;;3.78;;
18048;SDS011;9149;47.002;8.604;2023-06-10T00:48:49;6.38;;;3.17;;
18048;SDS011;9149;47.002;8.604;2023-06-10T00:51:17;7.18;;;3.30;;
18048;SDS011;9149;47.002;8.604;2023-06-10T00:53:45;7.80;;;4.05;;
18048;SDS011;9149;47.002;8.604;2023-06-10T00:56:15;9.73;;;3.95;;
18048;SDS011;9149;47.002;8.604;2023-06-10T00:58:42;7.20;;;3.95;;
18048;SDS011;9149;47.002;8.604;2023-06-10T01:01:10;7.63;;;3.90;;
18048;SDS011;9149;47.002;8.604;2023-06-10T01:03:39;5.88;;;3.67;;
18048;SDS011;9149;47.002;8.604;2023-06-10T01:06:08;5.45;;;3.45;;
18048;SDS011;9149;47.002;8.604;2023-06-10T01:08:43;7.95;;;4.00;;
18048;SDS011;9149;47.002;8.604;2023-06-10T01:11:16;6.28;;;3.97;;
18048;SDS011;9149;47.002;8.604;2023-06-10T01:13:45;5.45;;;3.42;;
18048;SDS011;9149;47.002;8.604;2023-06-10T01:16:16;6.05;;;3.70;;
18048;SDS011;9149;47.002;8.604;2023-06-10T01:18:44;7.65;;;3.95;;
18048;SDS011;9149;47.002;8.604;2023-06-10T01:21:14;10.15;;;3.80;;
18048;SDS011;9149;47.002;8.604;2023-06-10T01:23:43;5.38;;;3.65;;
18048;SDS011;9149;47.002;8.604;2023-06-10T01:26:11;7.50;;;3.55;;
18048;SDS011;9149;47.002;8.604;2023-06-10T01:28:41;6.07;;;3.72;;
18048;SDS011;9149;47.002;8.604;2023-06-10T01:31:13;6.00;;;3.72;;
18048;SDS011;9149;47.002;8.604;2023-06-10T01:33:46;7.47;;;3.75;;
18048;SDS011;9149;47.002;8.604;2023-06-10T01:36:16;13.05;;;3.70;;
18048;SDS011;9149;47.002;8.604;2023-06-10T01:38:45;5.60;;;3.47;;
18048;SDS011;9149;47.002;8.604;2023-06-10T01:41:14;6.95;;;3.63;;
18048;SDS011;9149;47.002;8.604;2023-06-10T01:43:43;5.25;;;3.70;;
18048;SDS011;9149;47.002;8.604;2023-06-10T01:46:13;5.65;;;3.50;;
18048;SDS011;9149;47.002;8.604;2023-06-10T01:48:41;8.65;;;3.58;;
18048;SDS011;9149;47.002;8.604;2023-06-10T01:51:08;5.38;;;3.30;;
18048;SDS011;9149;47.002;8.604;2023-06-10T01:53:37;6.55;;;3.28;;
18048;SDS011;9149;47.002;8.604;2023-06-10T01:56:05;5.05;;;3.30;;
18048;SDS011;9149;47.002;8.604;2023-06-10T01:58:33;7.05;;;3.10;;
18048;SDS011;9149;47.002;8.604;2023-06-10T02:01:01;5.18;;;3.33;;
18048;SDS011;9149;47.002;8.604;2023-06-10T02:03:29;5.75;;;3.83;;
18048;SDS011;9149;47.002;8.604;2023-06-10T02:05:56;4.72;;;3.30;;
18048;SDS011;9149;47.002;8.604;2023-06-10T02:08:25;4.80;;;3.33;;
18048;SDS011;9149;47.002;8.604;2023-06-10T02:10:55;5.47;;;3.50;;
18048;SDS011;9149;47.002;8.604;2023-06-10T02:13:22;4.95;;;3.20;;
18048;SDS011;9149;47.002;8.604;2023-06-10T02:15:53;6.30;;;3.80;;
18048;SDS011;9149;47.002;8.604;2023-06-10T02:18:21;6.45;;;3.90;;
18048;SDS011;9149;47.002;8.604;2023-06-10T02:20:48;8.10;;;3.72;;
18048;SDS011;9149;47.002;8.604;2023-06-10T02:23:16;5.68;;;3.50;;
18048;SDS011;9149;47.002;8.604;2023-06-10T02:25:44;6.40;;;3.70;;
18048;SDS011;9149;47.002;8.604;2023-06-10T02:28:13;5.10;;;3.63;;
18048;SDS011;9149;47.002;8.604;2023-06-10T02:30:40;5.35;;;3.40;;
18048;SDS011;9149;47.002;8.604;2023-06-10T02:33:08;5.65;;;3.85;;
18048;SDS011;9149;47.002;8.604;2023-06-10T02:35:38;4.53;;;3.40;;
18048;SDS011;9149;47.002;8.604;2023-06-10T02:38:06;6.43;;;3.55;;
18048;SDS011;9149;47.002;8.604;2023-06-10T02:40:34;5.40;;;3.65;;
18048;SDS011;9149;47.002;8.604;2023-06-10T02:43:02;5.70;;;3.55;;
18048;SDS011;9149;47.002;8.604;2023-06-10T02:45:32;5.22;;;3.45;;
18048;SDS011;9149;47.002;8.604;2023-06-10T02:48:01;7.00;;;3.40;;
18048;SDS011;9149;47.002;8.604;2023-06-10T02:50:30;5.57;;;3.47;;
18048;SDS011;9149;47.002;8.604;2023-06-10T02:53:06;6.00;;;3.33;;
18048;SDS011;9149;47.002;8.604;2023-06-10T02:55:37;8.40;;;3.72;;
18048;SDS011;9149;47.002;8.604;2023-06-10T02:58:09;5.65;;;3.65;;
18048;SDS011;9149;47.002;8.604;2023-06-10T03:00:38;5.78;;;2.95;;
18048;SDS011;9149;47.002;8.604;2023-06-10T03:03:08;5.35;;;3.40;;
18048;SDS011;9149;47.002;8.604;2023-06-10T03:05:45;11.27;;;3.42;;
18048;SDS011;9149;47.002;8.604;2023-06-10T03:08:14;9.18;;;3.58;;
18048;SDS011;9149;47.002;8.604;2023-06-10T03:10:43;6.93;;;3.65;;
18048;SDS011;9149;47.002;8.604;2023-06-10T03:13:15;5.63;;;3.72;;
18048;SDS011;9149;47.002;8.604;2023-06-10T03:15:45;9.85;;;4.00;;
18048;SDS011;9149;47.002;8.604;2023-06-10T03:18:16;6.43;;;3.65;;
18048;SDS011;9149;47.002;8.604;2023-06-10T03:20:45;6.15;;;3.67;;
18048;SDS011;9149;47.002;8.604;2023-06-10T03:23:14;6.65;;;4.20;;
18048;SDS011;9149;47.002;8.604;2023-06-10T03:25:42;5.63;;;3.60;;
18048;SDS011;9149;47.002;8.604;2023-06-10T03:28:13;7.40;;;3.90;;
18048;SDS011;9149;47.002;8.604;2023-06-10T03:30:42;6.95;;;3.70;;
18048;SDS011;9149;47.002;8.604;2023-06-10T03:33:11;7.65;;;4.20;;
18048;SDS011;9149;47.002;8.604;2023-06-10T03:35:40;6.07;;;3.65;;
18048;SDS011;9149;47.002;8.604;2023-06-10T03:38:08;7.80;;;4.20;;
18048;SDS011;9149;47.002;8.604;2023-06-10T03:40:36;5.93;;;3.63;;
18048;SDS011;9149;47.002;8.604;2023-06-10T03:43:05;14.10;;;4.13;;
18048;SDS011;9149;47.002;8.604;2023-06-10T03:45:33;12.52;;;4.30;;
18048;SDS011;9149;47.002;8.604;2023-06-10T03:48:01;9.52;;;4.40;;
18048;SDS011;9149;47.002;8.604;2023-06-10T03:50:41;5.63;;;3.92;;
18048;SDS011;9149;47.002;8.604;2023-06-10T03:53:08;7.80;;;3.85;;
18048;SDS011;9149;47.002;8.604;2023-06-10T03:55:38;6.15;;;3.80;;
18048;SDS011;9149;47.002;8.604;2023-06-10T03:58:07;8.13;;;4.22;;
18048;SDS011;9149;47.002;8.604;2023-06-10T04:00:35;5.65;;;3.67;;
18048;SDS011;9149;47.002;8.604;2023-06-10T04:03:07;5.88;;;3.53;;
18048;SDS011;9149;47.002;8.604;2023-06-10T04:05:46;5.85;;;3.67;;
18048;SDS011;9149;47.002;8.604;2023-06-10T04:08:13;6.20;;;3.55;;
18048;SDS011;9149;47.002;8.604;2023-06-10T04:10:41;6.07;;;3.72;;
18048;SDS011;9149;47.002;8.604;2023-06-10T04:13:09;6.32;;;3.90;;
18048;SDS011;9149;47.002;8.604;2023-06-10T04:15:45;7.07;;;3.90;;
18048;SDS011;9149;47.002;8.604;2023-06-10T04:18:15;7.30;;;3.75;;
18048;SDS011;9149;47.002;8.604;2023-06-10T04:20:45;5.05;;;3.33;;
18048;SDS011;9149;47.002;8.604;2023-06-10T04:23:13;9.10;;;3.95;;
18048;SDS011;9149;47.002;8.604;2023-06-10T04:25:43;9.52;;;4.03;;
18048;SDS011;9149;47.002;8.604;2023-06-10T04:28:12;7.80;;;3.50;;
18048;SDS011;9149;47.002;8.604;2023-06-10T04:30:41;11.77;;;3.75;;
18048;SDS011;9149;47.002;8.604;2023-06-10T04:33:10;6.47;;;3.50;;
18048;SDS011;9149;47.002;8.604;2023-06-10T04:35:39;11.45;;;3.63;;
18048;SDS011;9149;47.002;8.604;2023-06-10T04:38:11;6.75;;;3.88;;
18048;SDS011;9149;47.002;8.604;2023-06-10T04:40:39;6.25;;;3.65;;
18048;SDS011;9149;47.002;8.604;2023-06-10T04:43:09;7.40;;;3.97;;
18048;SDS011;9149;47.002;8.604;2023-06-10T04:45:37;6.72;;;3.95;;
18048;SDS011;9149;47.002;8.604;2023-06-10T04:48:06;11.52;;;3.60;;
18048;SDS011;9149;47.002;8.604;2023-06-10T04:50:34;6.07;;;3.50;;
18048;SDS011;9149;47.002;8.604;2023-06-10T04:53:03;5.30;;;3.28;;
18048;SDS011;9149;47.002;8.604;2023-06-10T04:55:32;5.10;;;3.60;;
18048;SDS011;9149;47.002;8.604;2023-06-10T04:58:00;4.80;;;3.45;;
18048;SDS011;9149;47.002;8.604;2023-06-10T05:00:28;6.40;;;3.65;;
18048;SDS011;9149;47.002;8.604;2023-06-10T05:02:56;8.93;;;4.25;;
18048;SDS011;9149;47.002;8.604;2023-06-10T05:05:24;6.05;;;3.40;;
18048;SDS011;9149;47.002;8.604;2023-06-10T05:07:51;7.35;;;3.72;;
18048;SDS011;9149;47.002;8.604;2023-06-10T05:10:19;5.95;;;3.97;;
18048;SDS011;9149;47.002;8.604;2023-06-10T05:12:48;14.18;;;3.60;;
18048;SDS011;9149;47.002;8.604;2023-06-10T05:15:15;5.22;;;3.45;;
18048;SDS011;9149;47.002;8.604;2023-06-10T05:17:43;5.93;;;3.45;;
18048;SDS011;9149;47.002;8.604;2023-06-10T05:20:11;6.13;;;3.88;;
18048;SDS011;9149;47.002;8.604;2023-06-10T05:22:40;6.82;;;4.13;;
18048;SDS011;9149;47.002;8.604;2023-06-10T05:25:07;7.28;;;4.00;;
18048;SDS011;9149;47.002;8.604;2023-06-10T05:27:36;6.00;;;3.67;;
18048;SDS011;9149;47.002;8.604;2023-06-10T05:30:06;6.47;;;3.80;;
18048;SDS011;9149;47.002;8.604;2023-06-10T05:32:34;6.07;;;3.30;;
18048;SDS011;9149;47.002;8.604;2023-06-10T05:35:01;7.00;;;3.65;;
18048;SDS011;9149;47.002;8.604;2023-06-10T05:37:31;7.55;;;3.90;;
18048;SDS011;9149;47.002;8.604;2023-06-10T05:39:58;5.50;;;3.55;;
18048;SDS011;9149;47.002;8.604;2023-06-10T05:42:43;8.52;;;3.92;;
18048;SDS011;9149;47.002;8.604;2023-06-10T05:45:12;7.72;;;3.50;;
18048;SDS011;9149;47.002;8.604;2023-06-10T05:47:40;12.35;;;4.40;;
18048;SDS011;9149;47.002;8.604;2023-06-10T05:50:07;6.68;;;3.88;;
18048;SDS011;9149;47.002;8.604;2023-06-10T05:52:36;4.95;;;3.22;;
18048;SDS011;9149;47.002;8.604;2023-06-10T05:55:06;6.45;;;3.42;;
18048;SDS011;9149;47.002;8.604;2023-06-10T05:57:34;7.90;;;3.88;;
18048;SDS011;9149;47.002;8.604;2023-06-10T06:00:02;6.97;;;3.97;;
18048;SDS011;9149;47.002;8.604;2023-06-10T06:02:39;9.65;;;3.60;;
18048;SDS011;9149;47.002;8.604;2023-06-10T06:05:07;6.38;;;3.72;;
18048;SDS011;9149;47.002;8.604;2023-06-10T06:07:35;7.13;;;3.92;;
18048;SDS011;9149;47.002;8.604;2023-06-10T06:10:03;4.10;;;3.22;;
18048;SDS011;9149;47.002;8.604;2023-06-10T06:12:31;6.30;;;3.63;;
18048;SDS011;9149;47.002;8.604;2023-06-10T06:14:58;6.00;;;3.95;;
18048;SDS011;9149;47.002;8.604;2023-06-10T06:17:26;5.80;;;3.80;;
18048;SDS011;9149;47.002;8.604;2023-06-10T06:19:55;6.95;;;3.83;;
18048;SDS011;9149;47.002;8.604;2023-06-10T06:22:23;8.65;;;4.03;;
18048;SDS011;9149;47.002;8.604;2023-06-10T06:24:50;5.13;;;3.30;;
18048;SDS011;9149;47.002;8.604;2023-06-10T06:27:18;6.20;;;3.50;;
18048;SDS011;9149;47.002;8.604;2023-06-10T06:29:47;6.78;;;3.20;;
18048;SDS011;9149;47.002;8.604;2023-06-10T06:32:15;8.02;;;3.40;;
18048;SDS011;9149;47.002;8.604;2023-06-10T06:34:43;4.55;;;3.45;;
18048;SDS011;9149;47.002;8.604;2023-06-10T06:37:12;5.75;;;3.60;;
18048;SDS011;9149;47.002;8.604;2023-06-10T06:39:42;5.30;;;3.30;;
18048;SDS011;9149;47.002;8.604;2023-06-10T06:42:09;6.38;;;3.80;;
18048;SDS011;9149;47.002;8.604;2023-06-10T06:44:50;4.78;;;3.28;;
18048;SDS011;9149;47.002;8.604;2023-06-10T06:47:18;5.03;;;3.28;;
18048;SDS011;9149;47.002;8.604;2023-06-10T06:49:46;7.43;;;3.15;;
18048;SDS011;9149;47.002;8.604;2023-06-10T06:52:15;6.38;;;3.30;;
18048;SDS011;9149;47.002;8.604;2023-06-10T06:54:43;10.25;;;3.40;;
18048;SDS011;9149;47.002;8.604;2023-06-10T06:57:11;5.53;;;2.78;;
18048;SDS011;9149;47.002;8.604;2023-06-10T06:59:38;4.80;;;2.90;;
18048;SDS011;9149;47.002;8.604;2023-06-10T07:02:06;5.13;;;3.05;;
18048;SDS011;9149;47.002;8.604;2023-06-10T07:04:34;4.07;;;2.92;;
18048;SDS011;9149;47.002;8.604;2023-06-10T07:07:01;3.50;;;2.80;;
18048;SDS011;9149;47.002;8.604;2023-06-10T07:09:30;3.35;;;2.60;;
18048;SDS011;9149;47.002;8.604;2023-06-10T07:11:58;4.45;;;2.88;;
18048;SDS011;9149;47.002;8.604;2023-06-10T07:14:25;5.18;;;3.42;;
18048;SDS011;9149;47.002;8.604;2023-06-10T07:16:53;5.80;;;2.92;;
18048;SDS011;9149;47.002;8.604;2023-06-10T07:19:21;5.78;;;3.35;;
18048;SDS011;9149;47.002;8.604;2023-06-10T07:21:49;5.53;;;3.50;;
18048;SDS011;9149;47.002;8.604;2023-06-10T07:24:36;5.18;;;3.15;;
18048;SDS011;9149;47.002;8.604;2023-06-10T07:27:04;4.57;;;3.08;;
18048;SDS011;9149;47.002;8.604;2023-06-10T07:29:32;5.00;;;3.20;;
18048;SDS011;9149;47.002;8.604;2023-06-10T07:31:59;4.88;;;3.50;;
18048;SDS011;9149;47.002;8.604;2023-06-10T07:34:27;4.65;;;2.97;;
18048;SDS011;9149;47.002;8.604;2023-06-10T07:36:55;5.32;;;2.80;;
18048;SDS011;9149;47.002;8.604;2023-06-10T07:39:23;4.53;;;3.10;;
18048;SDS011;9149;47.002;8.604;2023-06-10T07:41:51;4.70;;;3.08;;
18048;SDS011;9149;47.002;8.604;2023-06-10T07:44:20;4.22;;;3.08;;
18048;SDS011;9149;47.002;8.604;2023-06-10T07:46:47;3.97;;;2.75;;
18048;SDS011;9149;47.002;8.604;2023-06-10T07:49:15;6.82;;;3.15;;
18048;SDS011;9149;47.002;8.604;2023-06-10T07:51:43;3.88;;;2.60;;
18048;SDS011;9149;47.002;8.604;2023-06-10T07:54:11;8.57;;;2.90;;
18048;SDS011;9149;47.002;8.604;2023-06-10T07:56:42;6.28;;;2.80;;
18048;SDS011;9149;47.002;8.604;2023-06-10T07:59:11;6.97;;;2.97;;
18048;SDS011;9149;47.002;8.604;2023-06-10T08:01:39;5.13;;;2.80;;
18048;SDS011;9149;47.002;8.604;2023-06-10T08:04:08;3.95;;;2.70;;
18048;SDS011;9149;47.002;8.604;2023-06-10T08:06:36;5.20;;;3.08;;
18048;SDS011;9149;47.002;8.604;2023-06-10T08:09:04;5.28;;;2.90;;
18048;SDS011;9149;47.002;8.604;2023-06-10T08:11:32;6.72;;;2.67;;
18048;SDS011;9149;47.002;8.604;2023-06-10T08:13:59;4.18;;;3.03;;
18048;SDS011;9149;47.002;8.604;2023-06-10T08:16:28;4.70;;;2.80;;
18048;SDS011;9149;47.002;8.604;2023-06-10T08:18:56;4.53;;;3.00;;
18048;SDS011;9149;47.002;8.604;2023-06-10T08:21:24;3.72;;;2.45;;
18048;SDS011;9149;47.002;8.604;2023-06-10T08:23:52;6.45;;;3.13;;
18048;SDS011;9149;47.002;8.604;2023-06-10T08:26:20;4.38;;;3.10;;
18048;SDS011;9149;47.002;8.604;2023-06-10T08:28:47;4.28;;;2.90;;
18048;SDS011;9149;47.002;8.604;2023-06-10T08:31:15;4.18;;;3.15;;
18048;SDS011;9149;47.002;8.604;2023-06-10T08:33:44;5.03;;;3.45;;
18048;SDS011;9149;47.002;8.604;2023-06-10T08:36:12;4.25;;;3.00;;
18048;SDS011;9149;47.002;8.604;2023-06-10T08:38:40;4.90;;;2.88;;
18048;SDS011;9149;47.002;8.604;2023-06-10T08:41:07;8.85;;;3.55;;
18048;SDS011;9149;47.002;8.604;2023-06-10T08:43:37;12.05;;;3.60;;
18048;SDS011;9149;47.002;8.604;2023-06-10T08:46:07;7.60;;;3.72;;
18048;SDS011;9149;47.002;8.604;2023-06-10T08:48:37;15.27;;;3.92;;
18048;SDS011;9149;47.002;8.604;2023-06-10T08:51:07;6.22;;;4.10;;
18048;SDS011;9149;47.002;8.604;2023-06-10T08:53:37;6.60;;;4.47;;
18048;SDS011;9149;47.002;8.604;2023-06-10T08:56:05;7.60;;;4.72;;
18048;SDS011;9149;47.002;8.604;2023-06-10T08:58:33;10.30;;;4.60;;
18048;SDS011;9149;47.002;8.604;2023-06-10T09:01:06;6.70;;;4.53;;
18048;SDS011;9149;47.002;8.604;2023-06-10T09:03:34;6.55;;;4.28;;
18048;SDS011;9149;47.002;8.604;2023-06-10T09:06:04;7.43;;;4.88;;
18048;SDS011;9149;47.002;8.604;2023-06-10T09:08:34;7.40;;;4.47;;
18048;SDS011;9149;47.002;8.604;2023-06-10T09:11:04;9.27;;;4.40;;
18048;SDS011;9149;47.002;8.604;2023-06-10T09:13:32;9.18;;;4.80;;
18048;SDS011;9149;47.002;8.604;2023-06-10T09:15:59;9.23;;;5.03;;
18048;SDS011;9149;47.002;8.604;2023-06-10T09:18:29;8.13;;;4.82;;
18048;SDS011;9149;47.002;8.604;2023-06-10T09:20:57;5.78;;;4.05;;
18048;SDS011;9149;47.002;8.604;2023-06-10T09:23:25;7.88;;;4.70;;
18048;SDS011;9149;47.002;8.604;2023-06-10T09:25:57;11.70;;;5.30;;
18048;SDS011;9149;47.002;8.604;2023-06-10T09:28:25;7.65;;;4.30;;
18048;SDS011;9149;47.002;8.604;2023-06-10T09:31:01;8.57;;;5.05;;
18048;SDS011;9149;47.002;8.604;2023-06-10T09:33:30;7.90;;;4.65;;
18048;SDS011;9149;47.002;8.604;2023-06-10T09:35:57;7.05;;;4.88;;
18048;SDS011;9149;47.002;8.604;2023-06-10T09:38:29;6.38;;;4.57;;
18048;SDS011;9149;47.002;8.604;2023-06-10T09:40:58;6.75;;;4.63;;
18048;SDS011;9149;47.002;8.604;2023-06-10T09:46:13;6.57;;;4.63;;
18048;SDS011;9149;47.002;8.604;2023-06-10T09:48:41;8.13;;;4.65;;
18048;SDS011;9149;47.002;8.604;2023-06-10T09:51:10;7.20;;;4.72;;
18048;SDS011;9149;47.002;8.604;2023-06-10T09:53:38;8.73;;;4.88;;
18048;SDS011;9149;47.002;8.604;2023-06-10T09:56:07;8.07;;;5.35;;
18048;SDS011;9149;47.002;8.604;2023-06-10T09:58:37;22.63;;;5.50;;
18048;SDS011;9149;47.002;8.604;2023-06-10T10:01:05;7.65;;;5.25;;
18048;SDS011;9149;47.002;8.604;2023-06-10T10:03:33;7.70;;;5.38;;
18048;SDS011;9149;47.002;8.604;2023-06-10T10:06:00;9.40;;;5.93;;
18048;SDS011;9149;47.002;8.604;2023-06-10T10:08:28;10.75;;;5.38;;
18048;SDS011;9149;47.002;8.604;2023-06-10T10:10:56;8.85;;;5.95;;
18048;SDS011;9149;47.002;8.604;2023-06-10T10:13:26;9.68;;;6.30;;
18048;SDS011;9149;47.002;8.604;2023-06-10T10:15:55;10.18;;;6.38;;
18048;SDS011;9149;47.002;8.604;2023-06-10T10:18:24;10.07;;;6.68;;
18048;SDS011;9149;47.002;8.604;2023-06-10T10:20:55;9.18;;;6.35;;
18048;SDS011;9149;47.002;8.604;2023-06-10T10:23:25;8.43;;;6.00;;
18048;SDS011;9149;47.002;8.604;2023-06-10T10:25:54;9.50;;;5.72;;
18048;SDS011;9149;47.002;8.604;2023-06-10T10:28:23;14.02;;;7.32;;
18048;SDS011;9149;47.002;8.604;2023-06-10T10:30:54;9.02;;;6.78;;
18048;SDS011;9149;47.002;8.604;2023-06-10T10:33:27;9.98;;;6.93;;
18048;SDS011;9149;47.002;8.604;2023-06-10T10:35:58;12.57;;;6.53;;
18048;SDS011;9149;47.002;8.604;2023-06-10T10:38:26;9.20;;;6.72;;
18048;SDS011;9149;47.002;8.604;2023-06-10T10:40:55;12.20;;;6.28;;
18048;SDS011;9149;47.002;8.604;2023-06-10T10:43:26;10.95;;;6.80;;
18048;SDS011;9149;47.002;8.604;2023-06-10T10:46:00;9.88;;;6.57;;
18048;SDS011;9149;47.002;8.604;2023-06-10T10:48:32;9.25;;;6.43;;
18048;SDS011;9149;47.002;8.604;2023-06-10T10:51:00;10.60;;;6.60;;
18048;SDS011;9149;47.002;8.604;2023-06-10T10:53:29;11.02;;;7.40;;
18048;SDS011;9149;47.002;8.604;2023-06-10T10:55:58;11.73;;;7.45;;
18048;SDS011;9149;47.002;8.604;2023-06-10T10:58:26;12.25;;;7.72;;
18048;SDS011;9149;47.002;8.604;2023-06-10T11:00:53;11.05;;;7.35;;
18048;SDS011;9149;47.002;8.604;2023-06-10T11:03:24;11.25;;;6.63;;
18048;SDS011;9149;47.002;8.604;2023-06-10T11:05:57;10.52;;;6.22;;
18048;SDS011;9149;47.002;8.604;2023-06-10T11:11:17;9.77;;;6.68;;
18048;SDS011;9149;47.002;8.604;2023-06-10T11:13:56;11.10;;;7.20;;
18048;SDS011;9149;47.002;8.604;2023-06-10T11:16:25;14.52;;;6.75;;
18048;SDS011;9149;47.002;8.604;2023-06-10T11:18:54;10.95;;;6.32;;
18048;SDS011;9149;47.002;8.604;2023-06-10T11:21:23;9.43;;;6.25;;
18048;SDS011;9149;47.002;8.604;2023-06-10T11:23:57;7.05;;;5.35;;
18048;SDS011;9149;47.002;8.604;2023-06-10T11:26:32;10.20;;;6.10;;
18048;SDS011;9149;47.002;8.604;2023-06-10T11:29:02;9.20;;;5.22;;
18048;SDS011;9149;47.002;8.604;2023-06-10T11:31:31;7.97;;;5.35;;
18048;SDS011;9149;47.002;8.604;2023-06-10T11:34:01;8.30;;;5.68;;
18048;SDS011;9149;47.002;8.604;2023-06-10T11:36:29;8.05;;;5.28;;
18048;SDS011;9149;47.002;8.604;2023-06-10T11:38:58;9.52;;;5.55;;
18048;SDS011;9149;47.002;8.604;2023-06-10T11:41:26;9.23;;;5.75;;
18048;SDS011;9149;47.002;8.604;2023-06-10T11:43:56;9.60;;;5.45;;
18048;SDS011;9149;47.002;8.604;2023-06-10T11:46:23;8.13;;;5.68;;
18048;SDS011;9149;47.002;8.604;2023-06-10T11:48:53;7.25;;;5.50;;
18048;SDS011;9149;47.002;8.604;2023-06-10T11:51:24;8.82;;;5.70;;
18048;SDS011;9149;47.002;8.604;2023-06-10T11:53:52;8.10;;;5.38;;
18048;SDS011;9149;47.002;8.604;2023-06-10T11:56:20;9.15;;;5.97;;
18048;SDS011;9149;47.002;8.604;2023-06-10T11:58:52;7.40;;;5.15;;
18048;SDS011;9149;47.002;8.604;2023-06-10T12:01:20;7.85;;;5.03;;
18048;SDS011;9149;47.002;8.604;2023-06-10T12:03:56;9.40;;;5.50;;
18048;SDS011;9149;47.002;8.604;2023-06-10T12:06:25;8.55;;;6.15;;
18048;SDS011;9149;47.002;8.604;2023-06-10T12:08:53;8.13;;;5.45;;
18048;SDS011;9149;47.002;8.604;2023-06-10T12:11:25;8.60;;;5.25;;
18048;SDS011;9149;47.002;8.604;2023-06-10T12:13:53;8.82;;;5.55;;
18048;SDS011;9149;47.002;8.604;2023-06-10T12:16:20;7.43;;;5.10;;
18048;SDS011;9149;47.002;8.604;2023-06-10T12:18:48;9.27;;;5.63;;
18048;SDS011;9149;47.002;8.604;2023-06-10T12:21:17;6.50;;;4.80;;
18048;SDS011;9149;47.002;8.604;2023-06-10T12:26:34;7.15;;;5.20;;
18048;SDS011;9149;47.002;8.604;2023-06-10T12:29:02;6.63;;;4.90;;
18048;SDS011;9149;47.002;8.604;2023-06-10T12:34:16;7.43;;;5.47;;
18048;SDS011;9149;47.002;8.604;2023-06-10T12:36:47;8.43;;;5.57;;
18048;SDS011;9149;47.002;8.604;2023-06-10T12:39:15;8.27;;;5.40;;
18048;SDS011;9149;47.002;8.604;2023-06-10T12:41:48;7.45;;;5.22;;
18048;SDS011;9149;47.002;8.604;2023-06-10T12:44:16;7.10;;;5.38;;
18048;SDS011;9149;47.002;8.604;2023-06-10T12:46:43;7.60;;;5.28;;
18048;SDS011;9149;47.002;8.604;2023-06-10T12:49:18;8.20;;;5.50;;
18048;SDS011;9149;47.002;8.604;2023-06-10T12:51:46;7.55;;;5.03;;
18048;SDS011;9149;47.002;8.604;2023-06-10T12:54:14;9.63;;;5.25;;
18048;SDS011;9149;47.002;8.604;2023-06-10T12:56:41;6.93;;;4.95;;
18048;SDS011;9149;47.002;8.604;2023-06-10T12:59:10;5.93;;;4.82;;
18048;SDS011;9149;47.002;8.604;2023-06-10T13:01:38;7.63;;;4.85;;
18048;SDS011;9149;47.002;8.604;2023-06-10T13:04:06;6.55;;;4.90;;
18048;SDS011;9149;47.002;8.604;2023-06-10T13:06:34;6.38;;;4.68;;
18048;SDS011;9149;47.002;8.604;2023-06-10T13:09:05;6.60;;;4.60;;
18048;SDS011;9149;47.002;8.604;2023-06-10T13:11:34;6.95;;;4.78;;
18048;SDS011;9149;47.002;8.604;2023-06-10T13:14:02;6.68;;;4.40;;
18048;SDS011;9149;47.002;8.604;2023-06-10T13:16:32;7.05;;;4.13;;
18048;SDS011;9149;47.002;8.604;2023-06-10T13:18:59;6.32;;;4.65;;
18048;SDS011;9149;47.002;8.604;2023-06-10T13:21:29;7.15;;;4.53;;
18048;SDS011;9149;47.002;8.604;2023-06-10T13:23:56;6.32;;;4.68;;
18048;SDS011;9149;47.002;8.604;2023-06-10T13:26:24;8.10;;;4.75;;
18048;SDS011;9149;47.002;8.604;2023-06-10T13:28:52;6.63;;;4.95;;
18048;SDS011;9149;47.002;8.604;2023-06-10T13:31:20;9.55;;;4.47;;
18048;SDS011;9149;47.002;8.604;2023-06-10T13:33:49;6.70;;;4.50;;
18048;SDS011;9149;47.002;8.604;2023-06-10T13:36:17;6.68;;;5.10;;
18048;SDS011;9149;47.002;8.604;2023-06-10T13:38:45;10.73;;;4.60;;
18048;SDS011;9149;47.002;8.604;2023-06-10T13:41:13;7.18;;;4.63;;
18048;SDS011;9149;47.002;8.604;2023-06-10T13:43:41;7.32;;;5.00;;
18048;SDS011;9149;47.002;8.604;2023-06-10T13:46:09;7.30;;;4.95;;
18048;SDS011;9149;47.002;8.604;2023-06-10T13:48:37;7.50;;;4.95;;
18048;SDS011;9149;47.002;8.604;2023-06-10T13:51:06;6.15;;;4.35;;
18048;SDS011;9149;47.002;8.604;2023-06-10T13:53:35;4.97;;;3.95;;
18048;SDS011;9149;47.002;8.604;2023-06-10T13:56:03;6.65;;;4.65;;
18048;SDS011;9149;47.002;8.604;2023-06-10T13:58:31;9.30;;;4.25;;
18048;SDS011;9149;47.002;8.604;2023-06-10T14:01:05;6.93;;;4.60;;
18048;SDS011;9149;47.002;8.604;2023-06-10T14:03:32;9.18;;;4.18;;
18048;SDS011;9149;47.002;8.604;2023-06-10T14:06:00;6.60;;;4.40;;
18048;SDS011;9149;47.002;8.604;2023-06-10T14:08:29;9.77;;;5.03;;
18048;SDS011;9149;47.002;8.604;2023-06-10T14:10:57;5.70;;;4.05;;
18048;SDS011;9149;47.002;8.604;2023-06-10T14:13:25;6.50;;;4.05;;
18048;SDS011;9149;47.002;8.604;2023-06-10T14:15:52;7.78;;;4.70;;
18048;SDS011;9149;47.002;8.604;2023-06-10T14:18:20;7.20;;;4.55;;
18048;SDS011;9149;47.002;8.604;2023-06-10T14:20:47;9.80;;;4.85;;
18048;SDS011;9149;47.002;8.604;2023-06-10T14:23:15;6.43;;;4.07;;
18048;SDS011;9149;47.002;8.604;2023-06-10T14:25:44;5.63;;;4.00;;
18048;SDS011;9149;47.002;8.604;2023-06-10T14:28:15;6.20;;;4.00;;
18048;SDS011;9149;47.002;8.604;2023-06-10T14:30:43;5.72;;;4.00;;
18048;SDS011;9149;47.002;8.604;2023-06-10T14:33:10;6.90;;;4.07;;
18048;SDS011;9149;47.002;8.604;2023-06-10T14:35:38;5.88;;;4.10;;
18048;SDS011;9149;47.002;8.604;2023-06-10T14:38:06;5.90;;;4.35;;
18048;SDS011;9149;47.002;8.604;2023-06-10T14:40:34;6.20;;;4.18;;
18048;SDS011;9149;47.002;8.604;2023-06-10T14:43:03;6.28;;;4.40;;
18048;SDS011;9149;47.002;8.604;2023-06-10T14:45:36;8.70;;;4.30;;
18048;SDS011;9149;47.002;8.604;2023-06-10T14:48:04;9.48;;;4.30;;
18048;SDS011;9149;47.002;8.604;2023-06-10T14:50:32;5.38;;;4.13;;
18048;SDS011;9149;47.002;8.604;2023-06-10T14:52:59;5.65;;;4.00;;
18048;SDS011;9149;47.002;8.604;2023-06-10T14:55:27;7.70;;;4.53;;
18048;SDS011;9149;47.002;8.604;2023-06-10T14:57:55;6.93;;;4.32;;
18048;SDS011;9149;47.002;8.604;2023-06-10T15:00:25;6.00;;;4.05;;
18048;SDS011;9149;47.002;8.604;2023-06-10T15:02:53;5.43;;;4.03;;
18048;SDS011;9149;47.002;8.604;2023-06-10T15:05:22;6.68;;;4.55;;
18048;SDS011;9149;47.002;8.604;2023-06-10T15:07:49;5.68;;;4.20;;
18048;SDS011;9149;47.002;8.604;2023-06-10T15:10:17;6.15;;;4.07;;
18048;SDS011;9149;47.002;8.604;2023-06-10T15:12:49;9.07;;;4.20;;
18048;SDS011;9149;47.002;8.604;2023-06-10T15:15:21;5.30;;;3.80;;
18048;SDS011;9149;47.002;8.604;2023-06-10T15:17:50;6.38;;;4.25;;
18048;SDS011;9149;47.002;8.604;2023-06-10T15:20:19;6.55;;;4.18;;
18048;SDS011;9149;47.002;8.604;2023-06-10T15:22:46;6.60;;;4.45;;